CNK25 CYBW-CYEN
Flight info
| Callsign | CNK25 |
|---|---|
| Flight time | 1h 7m |
| Altitude | 45000 |
| Route | NOSIV DCT DESNU DCT KATEN |
| Aircraft | C750/M-SBDE3FGHRWXY/S |
Departure
| Time | 2026-04-27 01:07 |
|---|---|
| Airport | Calgary / Springbank Airport (CYBW) |
Arrival
| Time | 2026-04-27 02:14 |
|---|---|
| Airport | Estevan Airport (CYEN) |
| Time | Latitude | Longitude | Altitude | Speed | Heading |
|---|---|---|---|---|---|
| 2026-04-27 01:02 | 51.10254 | -114.37529 | 3942 ft | 0 kts | 92° |
| 2026-04-27 01:04 | 51.10250 | -114.37521 | 3942 ft | 2 kts | 135° |
| 2026-04-27 01:04 | 51.10244 | -114.37529 | 3942 ft | 3 kts | 223° |
| 2026-04-27 01:05 | 51.10262 | -114.37580 | 3942 ft | 8 kts | 344° |
| 2026-04-27 01:05 | 51.10334 | -114.37614 | 3941 ft | 13 kts | 323° |
| 2026-04-27 01:05 | 51.10346 | -114.37757 | 3942 ft | 16 kts | 270° |
| 2026-04-27 01:05 | 51.10389 | -114.37886 | 3942 ft | 14 kts | 352° |
| 2026-04-27 01:06 | 51.10477 | -114.37817 | 3942 ft | 17 kts | 86° |
| 2026-04-27 01:06 | 51.10480 | -114.37584 | 3943 ft | 33 kts | 89° |
| 2026-04-27 01:06 | 51.10482 | -114.36662 | 3938 ft | 128 kts | 89° |
| 2026-04-27 01:06 | 51.10485 | -114.34996 | 4051 ft | 168 kts | 89° |
| 2026-04-27 01:07 | 51.10483 | -114.33014 | 4533 ft | 188 kts | 90° |
| 2026-04-27 01:07 | 51.10416 | -114.30860 | 5161 ft | 205 kts | 99° |
| 2026-04-27 01:07 | 51.09696 | -114.28619 | 5124 ft | 252 kts | 126° |
| 2026-04-27 01:07 | 51.08648 | -114.26292 | 5951 ft | 258 kts | 122° |
| 2026-04-27 01:08 | 51.07851 | -114.23744 | 6952 ft | 262 kts | 110° |
| 2026-04-27 01:08 | 51.07367 | -114.20937 | 7777 ft | 271 kts | 101° |
| 2026-04-27 01:08 | 51.06946 | -114.17972 | 8750 ft | 278 kts | 103° |
| 2026-04-27 01:08 | 51.06417 | -114.14970 | 9675 ft | 286 kts | 105° |
| 2026-04-27 01:09 | 51.05827 | -114.11892 | 10364 ft | 299 kts | 105° |
| 2026-04-27 01:09 | 51.05222 | -114.08572 | 10619 ft | 326 kts | 104° |
| 2026-04-27 01:09 | 51.04586 | -114.04959 | 10765 ft | 352 kts | 104° |
| 2026-04-27 01:09 | 51.03903 | -114.01177 | 11496 ft | 356 kts | 105° |
| 2026-04-27 01:10 | 51.03206 | -113.97380 | 12248 ft | 361 kts | 105° |
| 2026-04-27 01:10 | 51.02503 | -113.93522 | 12982 ft | 366 kts | 105° |
| 2026-04-27 01:10 | 51.01794 | -113.89607 | 13708 ft | 371 kts | 105° |
| 2026-04-27 01:10 | 51.01072 | -113.85649 | 14383 ft | 375 kts | 105° |
| 2026-04-27 01:11 | 51.00349 | -113.81712 | 15069 ft | 378 kts | 105° |
| 2026-04-27 01:11 | 50.99608 | -113.77677 | 15763 ft | 381 kts | 105° |
| 2026-04-27 01:11 | 50.98863 | -113.73615 | 16480 ft | 385 kts | 104° |
| 2026-04-27 01:11 | 50.98109 | -113.69522 | 17189 ft | 388 kts | 104° |
| 2026-04-27 01:12 | 50.97345 | -113.65388 | 17922 ft | 392 kts | 104° |
| 2026-04-27 01:12 | 50.96573 | -113.61212 | 18650 ft | 396 kts | 104° |
| 2026-04-27 01:12 | 50.95791 | -113.56997 | 19296 ft | 400 kts | 104° |
| 2026-04-27 01:12 | 50.95000 | -113.52743 | 19947 ft | 404 kts | 104° |
| 2026-04-27 01:13 | 50.94198 | -113.48439 | 20604 ft | 408 kts | 104° |
| 2026-04-27 01:13 | 50.93388 | -113.44102 | 21241 ft | 412 kts | 104° |
| 2026-04-27 01:13 | 50.92568 | -113.39721 | 21864 ft | 417 kts | 104° |
| 2026-04-27 01:13 | 50.91738 | -113.35300 | 22513 ft | 421 kts | 104° |
| 2026-04-27 01:14 | 50.90881 | -113.30842 | 23098 ft | 426 kts | 106° |
| 2026-04-27 01:14 | 50.89576 | -113.26586 | 23652 ft | 434 kts | 119° |
| 2026-04-27 01:14 | 50.87981 | -113.22569 | 24212 ft | 437 kts | 120° |
| 2026-04-27 01:14 | 50.86358 | -113.18478 | 24745 ft | 441 kts | 120° |
| 2026-04-27 01:15 | 50.84731 | -113.14341 | 25271 ft | 444 kts | 120° |
| 2026-04-27 01:15 | 50.83086 | -113.10175 | 25816 ft | 448 kts | 120° |
| 2026-04-27 01:15 | 50.81984 | -113.07404 | 26171 ft | 450 kts | 120° |
| 2026-04-27 01:15 | 50.79740 | -113.01777 | 26891 ft | 455 kts | 121° |
| 2026-04-27 01:16 | 50.78622 | -112.98964 | 27245 ft | 457 kts | 121° |
| 2026-04-27 01:16 | 50.76918 | -112.94680 | 27782 ft | 461 kts | 121° |
| 2026-04-27 01:16 | 50.75198 | -112.90373 | 28356 ft | 465 kts | 121° |
| 2026-04-27 01:16 | 50.73462 | -112.86037 | 28901 ft | 468 kts | 121° |
| 2026-04-27 01:17 | 50.71714 | -112.81674 | 29440 ft | 472 kts | 121° |
| 2026-04-27 01:17 | 50.69950 | -112.77275 | 29970 ft | 476 kts | 121° |
| 2026-04-27 01:17 | 50.68168 | -112.72843 | 30457 ft | 480 kts | 121° |
| 2026-04-27 01:17 | 50.66374 | -112.68389 | 30888 ft | 483 kts | 122° |
| 2026-04-27 01:18 | 50.64566 | -112.63906 | 31381 ft | 485 kts | 122° |
| 2026-04-27 01:18 | 50.62760 | -112.59437 | 32050 ft | 482 kts | 122° |
| 2026-04-27 01:18 | 50.60982 | -112.55042 | 32660 ft | 482 kts | 122° |
| 2026-04-27 01:18 | 50.59179 | -112.50597 | 33262 ft | 481 kts | 122° |
| 2026-04-27 01:19 | 50.57375 | -112.46154 | 33884 ft | 481 kts | 123° |
| 2026-04-27 01:19 | 50.55570 | -112.41715 | 34462 ft | 480 kts | 123° |
| 2026-04-27 01:19 | 50.53769 | -112.37298 | 34962 ft | 480 kts | 123° |
| 2026-04-27 01:19 | 50.51966 | -112.32882 | 35477 ft | 480 kts | 123° |
| 2026-04-27 01:20 | 50.50161 | -112.28465 | 35993 ft | 480 kts | 123° |
| 2026-04-27 01:20 | 50.48356 | -112.24058 | 36504 ft | 479 kts | 123° |
| 2026-04-27 01:20 | 50.46549 | -112.19656 | 37048 ft | 479 kts | 123° |
| 2026-04-27 01:20 | 50.44745 | -112.15265 | 37591 ft | 478 kts | 123° |
| 2026-04-27 01:21 | 50.42939 | -112.10878 | 38111 ft | 478 kts | 123° |
| 2026-04-27 01:21 | 50.41132 | -112.06495 | 38659 ft | 478 kts | 123° |
| 2026-04-27 01:21 | 50.39347 | -112.02172 | 39147 ft | 477 kts | 123° |
| 2026-04-27 01:21 | 50.37542 | -111.97810 | 39574 ft | 477 kts | 123° |
| 2026-04-27 01:22 | 50.35733 | -111.93442 | 39996 ft | 477 kts | 123° |
| 2026-04-27 01:22 | 50.33924 | -111.89085 | 40426 ft | 477 kts | 123° |
| 2026-04-27 01:22 | 50.32115 | -111.84736 | 40864 ft | 476 kts | 123° |
| 2026-04-27 01:22 | 50.30300 | -111.80377 | 41289 ft | 477 kts | 123° |
| 2026-04-27 01:23 | 50.28492 | -111.76042 | 41729 ft | 476 kts | 123° |
| 2026-04-27 01:23 | 50.26680 | -111.71707 | 42159 ft | 476 kts | 123° |
| 2026-04-27 01:23 | 50.24867 | -111.67373 | 42584 ft | 475 kts | 123° |
| 2026-04-27 01:23 | 50.23075 | -111.63100 | 42994 ft | 475 kts | 123° |
| 2026-04-27 01:24 | 50.21265 | -111.58789 | 43421 ft | 475 kts | 123° |
| 2026-04-27 01:24 | 50.19454 | -111.54483 | 43842 ft | 474 kts | 123° |
| 2026-04-27 01:24 | 50.17639 | -111.50175 | 44242 ft | 474 kts | 123° |
| 2026-04-27 01:24 | 50.15824 | -111.45873 | 44643 ft | 474 kts | 123° |
| 2026-04-27 01:25 | 50.14013 | -111.41587 | 45028 ft | 471 kts | 124° |
| 2026-04-27 01:25 | 50.12208 | -111.37324 | 45178 ft | 475 kts | 124° |
| 2026-04-27 01:25 | 50.10370 | -111.32991 | 45178 ft | 483 kts | 124° |
| 2026-04-27 01:26 | 50.06605 | -111.24134 | 45179 ft | 498 kts | 124° |
| 2026-04-27 01:26 | 50.03459 | -111.14412 | 45144 ft | 512 kts | 109° |
| 2026-04-27 01:27 | 50.01683 | -111.03573 | 45137 ft | 522 kts | 102° |
| 2026-04-27 01:27 | 49.99905 | -110.92692 | 45113 ft | 523 kts | 107° |
| 2026-04-27 01:28 | 49.97836 | -110.81849 | 45092 ft | 524 kts | 104° |
| 2026-04-27 01:28 | 49.95982 | -110.70893 | 45098 ft | 524 kts | 106° |
| 2026-04-27 01:29 | 49.93941 | -110.60023 | 45104 ft | 525 kts | 105° |
| 2026-04-27 01:29 | 49.92015 | -110.49088 | 45123 ft | 525 kts | 106° |
| 2026-04-27 01:30 | 49.90002 | -110.38260 | 45142 ft | 525 kts | 106° |
| 2026-04-27 01:30 | 49.88022 | -110.27343 | 45157 ft | 525 kts | 106° |
| 2026-04-27 01:31 | 49.86000 | -110.16467 | 45160 ft | 526 kts | 106° |
| 2026-04-27 01:31 | 49.83985 | -110.05577 | 45152 ft | 526 kts | 106° |
| 2026-04-27 01:32 | 49.81946 | -109.94683 | 45159 ft | 526 kts | 107° |
| 2026-04-27 01:32 | 49.79917 | -109.83876 | 45149 ft | 526 kts | 107° |
| 2026-04-27 01:33 | 49.77864 | -109.73017 | 45146 ft | 526 kts | 107° |
| 2026-04-27 01:33 | 49.75799 | -109.62153 | 45146 ft | 526 kts | 107° |
| 2026-04-27 01:34 | 49.73721 | -109.51283 | 45130 ft | 527 kts | 107° |
| 2026-04-27 01:34 | 49.71633 | -109.40426 | 45139 ft | 527 kts | 107° |
| 2026-04-27 01:35 | 49.69535 | -109.29578 | 45148 ft | 527 kts | 107° |
| 2026-04-27 01:35 | 49.67439 | -109.18800 | 45152 ft | 527 kts | 107° |
| 2026-04-27 01:36 | 49.65318 | -109.07955 | 45144 ft | 527 kts | 107° |
| 2026-04-27 01:36 | 49.63183 | -108.97100 | 45144 ft | 529 kts | 107° |
| 2026-04-27 01:37 | 49.61037 | -108.86250 | 45148 ft | 529 kts | 108° |
| 2026-04-27 01:37 | 49.58879 | -108.75402 | 45146 ft | 529 kts | 108° |
| 2026-04-27 01:38 | 49.56712 | -108.64565 | 45135 ft | 528 kts | 108° |
| 2026-04-27 01:38 | 49.54550 | -108.53820 | 45127 ft | 528 kts | 108° |
| 2026-04-27 01:39 | 49.52364 | -108.43007 | 45124 ft | 528 kts | 108° |
| 2026-04-27 01:39 | 49.50168 | -108.32209 | 45133 ft | 529 kts | 108° |
| 2026-04-27 01:40 | 49.47960 | -108.21411 | 45141 ft | 529 kts | 108° |
| 2026-04-27 01:40 | 49.45743 | -108.10625 | 45140 ft | 529 kts | 108° |
| 2026-04-27 01:41 | 49.43516 | -107.99851 | 45135 ft | 529 kts | 108° |
| 2026-04-27 01:41 | 49.41276 | -107.89073 | 45132 ft | 529 kts | 109° |
| 2026-04-27 01:42 | 49.39040 | -107.78372 | 45132 ft | 530 kts | 109° |
| 2026-04-27 01:42 | 49.36776 | -107.67595 | 45132 ft | 530 kts | 109° |
| 2026-04-27 01:43 | 49.34506 | -107.56844 | 45144 ft | 530 kts | 109° |
| 2026-04-27 01:43 | 49.32225 | -107.46097 | 45141 ft | 530 kts | 109° |
| 2026-04-27 01:44 | 49.29936 | -107.35370 | 45143 ft | 530 kts | 109° |
| 2026-04-27 01:44 | 49.27633 | -107.24640 | 45146 ft | 530 kts | 109° |
| 2026-04-27 01:45 | 49.25322 | -107.13921 | 45135 ft | 530 kts | 109° |
| 2026-04-27 01:45 | 49.22998 | -107.03204 | 45122 ft | 530 kts | 109° |
| 2026-04-27 01:46 | 49.20668 | -106.92513 | 45133 ft | 530 kts | 109° |
| 2026-04-27 01:46 | 49.18343 | -106.81896 | 45132 ft | 530 kts | 110° |
| 2026-04-27 01:47 | 49.15990 | -106.71212 | 45126 ft | 530 kts | 110° |
| 2026-04-27 01:47 | 49.13629 | -106.60540 | 45137 ft | 530 kts | 110° |
| 2026-04-27 01:48 | 49.11257 | -106.49877 | 45134 ft | 531 kts | 110° |
| 2026-04-27 01:48 | 49.08872 | -106.39210 | 45135 ft | 531 kts | 110° |
| 2026-04-27 01:49 | 49.06477 | -106.28555 | 45129 ft | 531 kts | 110° |
| 2026-04-27 01:49 | 49.04084 | -106.17956 | 45129 ft | 531 kts | 110° |
| 2026-04-27 01:50 | 49.01667 | -106.07310 | 45143 ft | 531 kts | 110° |
| 2026-04-27 01:50 | 49.00128 | -105.96323 | 45119 ft | 533 kts | 95° |
| 2026-04-27 01:51 | 49.00470 | -105.85063 | 44887 ft | 525 kts | 84° |
| 2026-04-27 01:51 | 49.00940 | -105.79586 | 44102 ft | 516 kts | 82° |
| 2026-04-27 01:51 | 49.01374 | -105.74208 | 43403 ft | 507 kts | 85° |
| 2026-04-27 01:51 | 49.01573 | -105.68909 | 42755 ft | 497 kts | 89° |
| 2026-04-27 01:52 | 49.01687 | -105.63692 | 42114 ft | 489 kts | 88° |
| 2026-04-27 01:52 | 49.01925 | -105.58556 | 41477 ft | 485 kts | 86° |
| 2026-04-27 01:52 | 49.02242 | -105.53450 | 40849 ft | 484 kts | 86° |
| 2026-04-27 01:52 | 49.02489 | -105.48323 | 40212 ft | 486 kts | 88° |
| 2026-04-27 01:53 | 49.02671 | -105.43143 | 39574 ft | 492 kts | 88° |
| 2026-04-27 01:53 | 49.02883 | -105.37919 | 38933 ft | 496 kts | 87° |
| 2026-04-27 01:53 | 49.03140 | -105.32744 | 38213 ft | 497 kts | 87° |
| 2026-04-27 01:53 | 49.03390 | -105.27464 | 37558 ft | 500 kts | 88° |
| 2026-04-27 01:54 | 49.03602 | -105.22147 | 36898 ft | 504 kts | 89° |
| 2026-04-27 01:54 | 49.03813 | -105.16805 | 36237 ft | 507 kts | 89° |
| 2026-04-27 01:54 | 49.04048 | -105.11425 | 35566 ft | 510 kts | 88° |
| 2026-04-27 01:54 | 49.04286 | -105.06013 | 34896 ft | 513 kts | 89° |
| 2026-04-27 01:55 | 49.04507 | -105.00562 | 34215 ft | 516 kts | 89° |
| 2026-04-27 01:55 | 49.04721 | -104.95080 | 33459 ft | 519 kts | 90° |
| 2026-04-27 01:55 | 49.04943 | -104.89575 | 32777 ft | 522 kts | 89° |
| 2026-04-27 01:55 | 49.05170 | -104.84029 | 32074 ft | 526 kts | 90° |
| 2026-04-27 01:56 | 49.05603 | -104.72818 | 30663 ft | 534 kts | 90° |
| 2026-04-27 01:56 | 49.05818 | -104.67182 | 29913 ft | 530 kts | 90° |
| 2026-04-27 01:56 | 49.06034 | -104.61611 | 29209 ft | 522 kts | 90° |
| 2026-04-27 01:57 | 49.06240 | -104.56110 | 28520 ft | 516 kts | 90° |
| 2026-04-27 01:57 | 49.06437 | -104.50687 | 27843 ft | 510 kts | 90° |
| 2026-04-27 01:57 | 49.06630 | -104.45319 | 27177 ft | 504 kts | 90° |
| 2026-04-27 01:57 | 49.06822 | -104.40015 | 26517 ft | 498 kts | 90° |
| 2026-04-27 01:58 | 49.07007 | -104.34846 | 25878 ft | 492 kts | 90° |
| 2026-04-27 01:58 | 49.07188 | -104.29649 | 25234 ft | 486 kts | 90° |
| 2026-04-27 01:58 | 49.07364 | -104.24532 | 24603 ft | 481 kts | 90° |
| 2026-04-27 01:58 | 49.07537 | -104.19458 | 23978 ft | 476 kts | 90° |
| 2026-04-27 01:59 | 49.07706 | -104.14448 | 23304 ft | 471 kts | 90° |
| 2026-04-27 01:59 | 49.07871 | -104.09489 | 22684 ft | 466 kts | 90° |
| 2026-04-27 01:59 | 49.08032 | -104.04570 | 22070 ft | 462 kts | 91° |
| 2026-04-27 01:59 | 49.08190 | -103.99694 | 21464 ft | 458 kts | 91° |
| 2026-04-27 02:00 | 49.08344 | -103.94862 | 20863 ft | 454 kts | 91° |
| 2026-04-27 02:00 | 49.08495 | -103.90074 | 20267 ft | 449 kts | 91° |
| 2026-04-27 02:00 | 49.08643 | -103.85342 | 19680 ft | 445 kts | 91° |
| 2026-04-27 02:00 | 49.08787 | -103.80653 | 19095 ft | 440 kts | 91° |
| 2026-04-27 02:01 | 49.08927 | -103.76016 | 18516 ft | 435 kts | 92° |
| 2026-04-27 02:01 | 49.09064 | -103.71419 | 17899 ft | 429 kts | 91° |
| 2026-04-27 02:01 | 49.09198 | -103.66909 | 17339 ft | 423 kts | 91° |
| 2026-04-27 02:01 | 49.09327 | -103.62450 | 16783 ft | 418 kts | 91° |
| 2026-04-27 02:02 | 49.09453 | -103.58050 | 16233 ft | 412 kts | 91° |
| 2026-04-27 02:02 | 49.09576 | -103.53708 | 15698 ft | 406 kts | 91° |
| 2026-04-27 02:02 | 49.09694 | -103.49476 | 15170 ft | 403 kts | 90° |
| 2026-04-27 02:02 | 49.09813 | -103.45181 | 14631 ft | 397 kts | 90° |
| 2026-04-27 02:03 | 49.09926 | -103.41053 | 14109 ft | 392 kts | 90° |
| 2026-04-27 02:03 | 49.10037 | -103.36916 | 13557 ft | 387 kts | 90° |
| 2026-04-27 02:03 | 49.10145 | -103.32846 | 13041 ft | 382 kts | 90° |
| 2026-04-27 02:03 | 49.10251 | -103.28816 | 12531 ft | 378 kts | 90° |
| 2026-04-27 02:04 | 49.10353 | -103.24838 | 12029 ft | 373 kts | 90° |
| 2026-04-27 02:04 | 49.10454 | -103.20902 | 11533 ft | 369 kts | 90° |
| 2026-04-27 02:04 | 49.10551 | -103.17051 | 11043 ft | 353 kts | 90° |
| 2026-04-27 02:04 | 49.10644 | -103.13420 | 10580 ft | 333 kts | 90° |
| 2026-04-27 02:05 | 49.10701 | -103.11119 | 10294 ft | 321 kts | 90° |
| 2026-04-27 02:05 | 49.10780 | -103.07798 | 9865 ft | 306 kts | 91° |
| 2026-04-27 02:05 | 49.10855 | -103.04610 | 9450 ft | 297 kts | 90° |
| 2026-04-27 02:05 | 49.10928 | -103.01479 | 9061 ft | 294 kts | 90° |
| 2026-04-27 02:06 | 49.11002 | -102.98365 | 8677 ft | 292 kts | 90° |
| 2026-04-27 02:06 | 49.11074 | -102.95276 | 8307 ft | 290 kts | 90° |
| 2026-04-27 02:06 | 49.11144 | -102.92207 | 7932 ft | 289 kts | 90° |
| 2026-04-27 02:06 | 49.11213 | -102.89147 | 7560 ft | 287 kts | 90° |
| 2026-04-27 02:07 | 49.11281 | -102.86138 | 7198 ft | 277 kts | 89° |
| 2026-04-27 02:07 | 49.11346 | -102.83260 | 6876 ft | 266 kts | 89° |
| 2026-04-27 02:07 | 49.11406 | -102.80491 | 6568 ft | 256 kts | 89° |
| 2026-04-27 02:07 | 49.11464 | -102.77816 | 6252 ft | 248 kts | 89° |
| 2026-04-27 02:08 | 49.11519 | -102.75231 | 5958 ft | 239 kts | 88° |
| 2026-04-27 02:08 | 49.11572 | -102.72738 | 5673 ft | 232 kts | 88° |
| 2026-04-27 02:08 | 49.11699 | -102.70330 | 5358 ft | 223 kts | 76° |
| 2026-04-27 02:08 | 49.12466 | -102.68401 | 5044 ft | 212 kts | 41° |
| 2026-04-27 02:09 | 49.13712 | -102.67384 | 4805 ft | 197 kts | 12° |
| 2026-04-27 02:09 | 49.15023 | -102.67275 | 4620 ft | 184 kts | 358° |
| 2026-04-27 02:09 | 49.16296 | -102.67277 | 4373 ft | 182 kts | 359° |
| 2026-04-27 02:09 | 49.17554 | -102.67271 | 4131 ft | 180 kts | 359° |
| 2026-04-27 02:10 | 49.18800 | -102.67323 | 3877 ft | 178 kts | 351° |
| 2026-04-27 02:10 | 49.19902 | -102.68110 | 3636 ft | 176 kts | 323° |
| 2026-04-27 02:10 | 49.20623 | -102.69559 | 3605 ft | 171 kts | 297° |
| 2026-04-27 02:10 | 49.20847 | -102.71377 | 3616 ft | 178 kts | 273° |
| 2026-04-27 02:11 | 49.20834 | -102.73302 | 3635 ft | 182 kts | 272° |
| 2026-04-27 02:11 | 49.20837 | -102.75248 | 3629 ft | 182 kts | 273° |
| 2026-04-27 02:11 | 49.20837 | -102.77186 | 3625 ft | 182 kts | 272° |
| 2026-04-27 02:11 | 49.20835 | -102.79131 | 3627 ft | 183 kts | 272° |
| 2026-04-27 02:12 | 49.20832 | -102.81080 | 3619 ft | 183 kts | 272° |
| 2026-04-27 02:12 | 49.20828 | -102.83025 | 3606 ft | 183 kts | 272° |
| 2026-04-27 02:12 | 49.20826 | -102.84972 | 3423 ft | 180 kts | 272° |
| 2026-04-27 02:12 | 49.20822 | -102.86842 | 3168 ft | 173 kts | 273° |
| 2026-04-27 02:13 | 49.20820 | -102.88666 | 2904 ft | 170 kts | 273° |
| 2026-04-27 02:13 | 49.20817 | -102.90467 | 2608 ft | 167 kts | 273° |
| 2026-04-27 02:13 | 49.20813 | -102.92250 | 2353 ft | 159 kts | 273° |
| 2026-04-27 02:13 | 49.20811 | -102.93812 | 2125 ft | 135 kts | 274° |
| 2026-04-27 02:14 | 49.20806 | -102.95175 | 1969 ft | 124 kts | 273° |
| 2026-04-27 02:14 | 49.20802 | -102.96328 | 1907 ft | 72 kts | 268° |
| 2026-04-27 02:14 | 49.20799 | -102.96596 | 1910 ft | 6 kts | 235° |
| 2026-04-27 02:14 | 49.20792 | -102.96594 | 1899 ft | 3 kts | 145° |
| 2026-04-27 02:15 | 49.20758 | -102.96511 | 1908 ft | 20 kts | 172° |
| 2026-04-27 02:15 | 49.20612 | -102.96504 | 1902 ft | 0 kts | 192° |